createdAt,value
2023-09-27T00:00:32.268Z,19.69
2023-09-27T00:02:39.187Z,19.71
2023-09-27T00:04:45.361Z,19.71
2023-09-27T00:06:55.301Z,19.72
2023-09-27T00:09:02.500Z,19.72
2023-09-27T00:11:11.451Z,19.70
2023-09-27T00:13:19.459Z,19.70
2023-09-27T00:15:25.415Z,19.68
2023-09-27T00:17:31.917Z,19.68
2023-09-27T00:19:40.144Z,19.71
2023-09-27T00:21:45.605Z,19.72
2023-09-27T00:23:53.111Z,19.73
2023-09-27T00:26:02.266Z,19.70
2023-09-27T00:28:10.640Z,19.70
2023-09-27T00:30:20.242Z,19.69
2023-09-27T00:32:27.784Z,19.67
2023-09-27T00:34:36.175Z,19.67
2023-09-27T00:36:43.696Z,19.65
2023-09-27T00:38:51.823Z,19.63
2023-09-27T00:40:58.665Z,19.62
2023-09-27T00:43:04.795Z,19.60
2023-09-27T00:45:14.139Z,19.54
2023-09-27T00:47:20.531Z,19.52
2023-09-27T00:49:28.116Z,19.52
2023-09-27T00:51:33.685Z,19.51
2023-09-27T00:53:42.606Z,19.51
2023-09-27T00:55:50.073Z,19.51
2023-09-27T00:57:57.126Z,19.49
2023-09-27T01:03:26.415Z,19.46
2023-09-27T01:05:31.906Z,19.44
2023-09-27T01:07:37.938Z,19.43
2023-09-27T01:09:42.692Z,19.42
2023-09-27T01:11:47.982Z,19.40
2023-09-27T01:13:55.840Z,19.39
2023-09-27T01:16:00.544Z,19.36
2023-09-27T01:18:05.999Z,19.33
2023-09-27T01:20:12.550Z,19.31
2023-09-27T01:22:17.418Z,19.27
2023-09-27T01:24:22.866Z,19.25
2023-09-27T01:26:29.813Z,19.22
2023-09-27T01:28:36.511Z,19.19
2023-09-27T01:30:41.351Z,19.15
2023-09-27T01:32:49.335Z,19.11
2023-09-27T01:34:57.080Z,19.08
2023-09-27T01:37:01.822Z,19.03
2023-09-27T01:39:06.758Z,18.99
2023-09-27T01:41:11.673Z,18.97
2023-09-27T01:43:16.546Z,18.95
2023-09-27T01:45:24.413Z,18.93
2023-09-27T01:47:32.410Z,18.91
2023-09-27T01:49:37.247Z,18.92
2023-09-27T01:51:43.283Z,18.92
2023-09-27T01:53:48.080Z,18.92
2023-09-27T01:55:52.871Z,18.91
2023-09-27T01:57:58.236Z,18.92
2023-09-27T02:00:03.129Z,18.92
2023-09-27T02:02:17.113Z,18.93
2023-09-27T02:04:21.842Z,18.93
2023-09-27T02:06:29.241Z,18.93
2023-09-27T02:08:34.179Z,18.92
2023-09-27T02:10:38.903Z,18.91
2023-09-27T02:12:43.852Z,18.91
2023-09-27T02:14:52.976Z,18.89
2023-09-27T02:16:57.653Z,18.85
2023-09-27T02:19:02.341Z,18.85
2023-09-27T02:21:07.368Z,18.84
2023-09-27T02:23:12.262Z,18.82
2023-09-27T02:25:17.604Z,18.78
2023-09-27T02:27:22.461Z,18.72
2023-09-27T02:29:27.442Z,18.65
2023-09-27T02:31:32.293Z,18.59
2023-09-27T02:33:37.086Z,18.56
2023-09-27T02:35:41.869Z,18.53
2023-09-27T02:37:46.917Z,18.53
2023-09-27T02:39:52.733Z,18.51
2023-09-27T02:41:58.013Z,18.49
2023-09-27T02:44:02.757Z,18.48
2023-09-27T02:46:07.574Z,18.46
2023-09-27T02:48:12.460Z,18.46
2023-09-27T02:50:17.716Z,18.45
2023-09-27T02:52:22.516Z,18.43
2023-09-27T02:54:27.952Z,18.42
2023-09-27T02:56:35.532Z,18.44
2023-09-27T02:58:40.374Z,18.43
2023-09-27T03:00:45.251Z,18.43
2023-09-27T03:02:52.197Z,18.43
2023-09-27T03:04:57.467Z,18.44
2023-09-27T03:07:02.358Z,18.43
2023-09-27T03:09:07.524Z,18.41
2023-09-27T03:11:15.230Z,18.41
2023-09-27T03:13:20.555Z,18.39
2023-09-27T03:15:25.356Z,18.36
2023-09-27T03:17:30.948Z,18.33
2023-09-27T03:19:35.750Z,18.28
2023-09-27T03:21:40.722Z,18.27
2023-09-27T03:23:45.493Z,18.25
2023-09-27T03:25:50.312Z,18.22
2023-09-27T03:27:55.153Z,18.22
2023-09-27T03:29:59.982Z,18.21
2023-09-27T03:32:04.918Z,18.20
2023-09-27T03:34:10.532Z,18.20
2023-09-27T03:36:15.556Z,18.19
2023-09-27T03:38:20.366Z,18.19
2023-09-27T03:40:25.339Z,18.22
2023-09-27T03:42:30.271Z,18.25
2023-09-27T03:44:34.956Z,18.26
2023-09-27T03:46:40.586Z,18.22
2023-09-27T03:48:49.103Z,18.18
2023-09-27T03:50:58.381Z,18.17
2023-09-27T03:53:04.819Z,18.15
2023-09-27T03:55:10.674Z,18.11
2023-09-27T03:57:15.704Z,18.11
2023-09-27T03:59:20.565Z,18.11
2023-09-27T04:01:25.499Z,18.11
2023-09-27T04:03:30.686Z,18.09
2023-09-27T04:05:38.327Z,18.08
2023-09-27T04:07:43.323Z,18.06
2023-09-27T04:09:48.127Z,18.03
2023-09-27T04:11:52.884Z,18.00
2023-09-27T04:13:57.710Z,17.95
2023-09-27T04:16:02.665Z,17.92
2023-09-27T04:18:07.898Z,17.91
2023-09-27T04:20:13.142Z,17.91
2023-09-27T04:22:17.873Z,17.89
2023-09-27T04:24:22.909Z,17.88
2023-09-27T04:26:29.514Z,17.86
2023-09-27T04:28:37.208Z,17.82
2023-09-27T04:30:41.856Z,17.84
2023-09-27T04:32:47.702Z,17.85
2023-09-27T04:34:52.545Z,17.84
2023-09-27T04:36:57.346Z,17.81
2023-09-27T04:39:05.367Z,17.78
2023-09-27T04:41:10.185Z,17.77
2023-09-27T04:43:14.991Z,17.76
2023-09-27T04:45:19.936Z,17.76
2023-09-27T04:47:24.743Z,17.74
2023-09-27T04:49:29.577Z,17.74
2023-09-27T04:51:34.417Z,17.77
2023-09-27T04:53:39.514Z,17.73
2023-09-27T04:55:44.570Z,17.72
2023-09-27T04:57:49.366Z,17.71
2023-09-27T04:59:55.145Z,17.70
2023-09-27T05:02:00.319Z,17.71
2023-09-27T05:04:05.848Z,17.66
2023-09-27T05:06:10.745Z,17.62
2023-09-27T05:08:15.553Z,17.57
2023-09-27T05:10:20.716Z,17.53
2023-09-27T05:12:25.740Z,17.48
2023-09-27T05:14:30.636Z,17.48
2023-09-27T05:16:39.082Z,17.47
2023-09-27T05:18:45.208Z,17.45
2023-09-27T05:20:49.959Z,17.43
2023-09-27T05:22:55.002Z,17.41
2023-09-27T05:24:59.724Z,17.40
2023-09-27T05:27:04.561Z,17.40
2023-09-27T05:29:11.258Z,17.40
2023-09-27T05:31:16.316Z,17.40
2023-09-27T05:33:22.353Z,17.41
2023-09-27T05:35:27.397Z,17.41
2023-09-27T05:37:32.189Z,17.42
2023-09-27T05:39:36.964Z,17.42
2023-09-27T05:41:42.738Z,17.40
2023-09-27T05:43:47.455Z,17.40
2023-09-27T05:45:52.283Z,17.45
2023-09-27T05:47:57.297Z,17.50
2023-09-27T05:50:02.318Z,17.56
2023-09-27T05:52:07.247Z,17.62
2023-09-27T05:54:12.095Z,17.67
2023-09-27T05:56:17.989Z,17.75
2023-09-27T05:58:22.772Z,17.79
2023-09-27T06:00:27.885Z,17.85
2023-09-27T06:02:33.090Z,17.89
2023-09-27T06:04:37.936Z,17.95
2023-09-27T06:06:42.710Z,17.99
2023-09-27T06:08:50.950Z,18.04
2023-09-27T06:10:55.908Z,18.09
2023-09-27T06:13:00.571Z,18.11
2023-09-27T06:15:06.528Z,18.14
2023-09-27T06:17:11.589Z,18.18
2023-09-27T06:19:16.546Z,18.21
2023-09-27T06:21:21.690Z,18.23
2023-09-27T06:23:27.026Z,18.27
2023-09-27T06:25:32.193Z,18.30
2023-09-27T06:27:37.003Z,18.32
2023-09-27T06:29:41.880Z,18.35
2023-09-27T06:31:47.050Z,18.36
2023-09-27T06:33:51.981Z,18.38
2023-09-27T06:36:02.136Z,18.40
2023-09-27T06:38:07.258Z,18.39
2023-09-27T06:40:13.367Z,18.44
2023-09-27T06:42:18.378Z,18.46
2023-09-27T06:44:23.261Z,18.51
2023-09-27T06:46:35.623Z,18.53
2023-09-27T06:48:52.350Z,18.57
2023-09-27T06:50:57.327Z,18.63
2023-09-27T06:53:19.845Z,18.68
2023-09-27T06:55:26.954Z,18.70
2023-09-27T06:57:31.790Z,18.72
2023-09-27T06:59:36.801Z,18.76
2023-09-27T07:01:43.134Z,18.75
2023-09-27T07:03:48.205Z,18.76
2023-09-27T07:05:53.675Z,18.79
2023-09-27T07:07:58.497Z,18.82
2023-09-27T07:10:03.427Z,18.84
2023-09-27T07:12:08.545Z,18.87
2023-09-27T07:14:16.678Z,18.93
2023-09-27T07:16:26.138Z,18.96
2023-09-27T07:18:31.486Z,18.98
2023-09-27T07:20:36.559Z,19.03
2023-09-27T07:22:41.590Z,19.08
2023-09-27T07:24:46.733Z,19.15
2023-09-27T07:26:51.675Z,19.21
2023-09-27T07:28:56.739Z,19.26
2023-09-27T07:31:01.852Z,19.28
2023-09-27T07:33:07.693Z,19.29
2023-09-27T07:35:12.822Z,19.30
2023-09-27T07:37:17.882Z,19.31
2023-09-27T07:39:22.928Z,19.32
2023-09-27T07:41:28.216Z,19.36
2023-09-27T07:43:33.261Z,19.39
2023-09-27T07:45:39.425Z,19.45
2023-09-27T07:47:44.745Z,19.54
2023-09-27T07:49:49.788Z,19.62
2023-09-27T07:51:54.885Z,19.69
2023-09-27T07:54:00.020Z,19.74
2023-09-27T07:56:05.539Z,19.77
2023-09-27T07:58:10.840Z,19.83
2023-09-27T08:00:17.439Z,19.91
2023-09-27T08:02:22.997Z,19.98
2023-09-27T08:04:29.482Z,20.06
2023-09-27T08:06:34.781Z,20.15
2023-09-27T08:08:40.249Z,20.22
2023-09-27T08:10:45.660Z,20.31
2023-09-27T08:12:53.501Z,20.41
2023-09-27T08:14:58.381Z,20.47
2023-09-27T08:17:03.775Z,20.52
2023-09-27T08:19:08.872Z,20.56
2023-09-27T08:21:16.424Z,20.62
2023-09-27T08:23:21.560Z,20.67
2023-09-27T08:25:26.459Z,20.72
2023-09-27T08:27:31.533Z,20.77
2023-09-27T08:29:36.674Z,20.83
2023-09-27T08:31:42.295Z,20.92
2023-09-27T08:33:47.500Z,20.97
2023-09-27T08:35:54.264Z,21.02
2023-09-27T08:37:59.461Z,21.06
2023-09-27T08:40:04.993Z,21.10
2023-09-27T08:42:10.133Z,21.12
2023-09-27T08:44:15.370Z,21.13
2023-09-27T08:46:23.256Z,21.12
2023-09-27T08:48:31.595Z,21.16
2023-09-27T08:50:38.208Z,21.20
2023-09-27T08:52:46.446Z,21.25
2023-09-27T08:54:52.708Z,21.31
2023-09-27T08:56:58.326Z,21.37
2023-09-27T08:59:07.080Z,21.43
2023-09-27T09:01:12.672Z,21.50
2023-09-27T09:03:18.600Z,21.58
2023-09-27T09:05:24.397Z,21.61
2023-09-27T09:07:29.325Z,21.66
2023-09-27T09:09:37.330Z,21.68
2023-09-27T09:11:45.316Z,21.69
2023-09-27T09:14:01.481Z,21.68
2023-09-27T09:16:17.127Z,21.70
2023-09-27T09:18:30.244Z,21.76
2023-09-27T09:20:35.937Z,21.81
2023-09-27T09:22:45.731Z,21.86
2023-09-27T09:24:59.458Z,21.91
2023-09-27T09:27:13.602Z,21.97
2023-09-27T09:29:21.161Z,22.04
2023-09-27T09:31:27.970Z,22.13
2023-09-27T09:33:33.062Z,22.20
2023-09-27T09:35:38.172Z,22.27
2023-09-27T09:37:48.466Z,22.34
2023-09-27T09:39:54.759Z,22.41
2023-09-27T09:42:00.358Z,22.50
2023-09-27T09:44:19.011Z,22.58
2023-09-27T09:46:27.461Z,22.66
2023-09-27T09:48:33.417Z,22.76
2023-09-27T09:50:40.667Z,22.86
2023-09-27T09:52:53.522Z,22.96
2023-09-27T09:55:15.321Z,23.05
2023-09-27T09:57:51.670Z,23.14
2023-09-27T10:00:06.360Z,23.22
2023-09-27T10:02:20.752Z,23.30
2023-09-27T10:04:28.019Z,23.38
2023-09-27T10:06:47.400Z,23.47
2023-09-27T10:09:00.013Z,23.57
2023-09-27T10:11:06.745Z,23.66
2023-09-27T10:13:14.558Z,23.74
2023-09-27T10:15:21.816Z,23.82
2023-09-27T10:17:30.455Z,23.91
2023-09-27T10:19:36.082Z,23.99
2023-09-27T10:22:02.979Z,24.07
2023-09-27T10:24:10.898Z,24.15
2023-09-27T10:26:31.648Z,24.19
2023-09-27T10:29:12.958Z,24.25
2023-09-27T10:31:18.015Z,24.31
2023-09-27T10:33:35.573Z,24.41
2023-09-27T10:35:40.640Z,24.49
2023-09-27T10:37:59.854Z,24.58
2023-09-27T10:40:24.328Z,24.67
2023-09-27T10:42:42.629Z,24.78
2023-09-27T10:44:47.707Z,24.89
2023-09-27T10:46:52.560Z,24.97
2023-09-27T10:48:58.258Z,25.07
2023-09-27T10:51:03.182Z,25.17
2023-09-27T10:53:08.897Z,25.25
2023-09-27T10:55:15.808Z,25.34
2023-09-27T10:57:22.860Z,25.43
2023-09-27T10:59:28.638Z,25.50
2023-09-27T11:01:33.798Z,25.58
2023-09-27T11:03:38.796Z,25.70
2023-09-27T11:05:43.759Z,25.79
2023-09-27T11:07:50.567Z,25.89
2023-09-27T11:09:55.444Z,25.99
2023-09-27T11:12:00.541Z,26.11
2023-09-27T11:14:05.771Z,26.22
2023-09-27T11:16:12.166Z,26.31
2023-09-27T11:18:17.317Z,26.41
2023-09-27T11:20:24.737Z,26.50
2023-09-27T11:22:31.688Z,26.59
2023-09-27T11:24:42.752Z,26.65
2023-09-27T11:26:47.874Z,26.66
2023-09-27T11:29:00.364Z,26.68
2023-09-27T11:31:06.085Z,26.70
2023-09-27T11:33:12.339Z,26.76
2023-09-27T11:35:21.189Z,26.84
2023-09-27T11:37:26.668Z,26.92
2023-09-27T11:39:47.847Z,26.96
2023-09-27T11:41:59.111Z,27.02
2023-09-27T11:44:17.806Z,27.09
2023-09-27T11:46:29.909Z,27.15
2023-09-27T11:48:35.481Z,27.22
2023-09-27T11:50:41.103Z,27.29
2023-09-27T11:52:47.210Z,27.35
2023-09-27T11:54:52.233Z,27.42
2023-09-27T11:56:57.369Z,27.49
2023-09-27T11:59:02.915Z,27.54
2023-09-27T12:01:07.995Z,27.61
2023-09-27T12:03:13.133Z,27.67
2023-09-27T12:05:18.911Z,27.74
2023-09-27T12:07:24.391Z,27.80
2023-09-27T12:09:29.716Z,27.86
2023-09-27T12:11:34.827Z,27.91
2023-09-27T12:13:40.802Z,27.99
2023-09-27T12:15:45.875Z,28.05
2023-09-27T12:17:51.204Z,28.09
2023-09-27T12:19:56.104Z,28.16
2023-09-27T12:22:01.169Z,28.24
2023-09-27T12:24:07.183Z,28.32
2023-09-27T12:26:12.471Z,28.43
2023-09-27T12:28:17.611Z,28.51
2023-09-27T12:30:22.707Z,28.60
2023-09-27T12:32:27.802Z,28.68
2023-09-27T12:34:32.871Z,28.72
2023-09-27T12:36:38.829Z,28.70
2023-09-27T12:38:43.652Z,28.66
2023-09-27T12:40:48.708Z,28.66
2023-09-27T12:42:53.690Z,28.68
2023-09-27T12:44:58.714Z,28.73
2023-09-27T12:47:03.901Z,28.77
2023-09-27T12:49:09.384Z,28.77
2023-09-27T12:51:14.589Z,28.76
2023-09-27T12:53:19.533Z,28.79
2023-09-27T12:55:24.869Z,28.85
2023-09-27T12:57:29.964Z,28.90
2023-09-27T12:59:35.042Z,28.94
2023-09-27T13:01:41.879Z,28.95
2023-09-27T13:03:47.318Z,28.93
2023-09-27T13:05:52.590Z,28.95
2023-09-27T13:07:57.627Z,28.94
2023-09-27T13:10:02.767Z,28.94
2023-09-27T13:12:10.832Z,28.94
2023-09-27T13:14:16.127Z,28.92
2023-09-27T13:16:21.369Z,28.95
2023-09-27T13:18:29.610Z,28.96
2023-09-27T13:20:35.965Z,28.95
2023-09-27T13:22:41.578Z,28.91
2023-09-27T13:24:49.302Z,28.90
2023-09-27T13:26:54.777Z,28.89
2023-09-27T13:29:00.037Z,28.87
2023-09-27T13:31:05.374Z,28.84
2023-09-27T13:33:10.295Z,28.79
2023-09-27T13:35:15.874Z,28.78
2023-09-27T13:37:21.285Z,28.80
2023-09-27T13:39:26.541Z,28.83
2023-09-27T13:41:32.192Z,28.85
2023-09-27T13:43:37.383Z,28.87
2023-09-27T13:45:44.072Z,28.90
2023-09-27T13:47:56.330Z,28.88
2023-09-27T13:50:01.524Z,28.84
2023-09-27T13:52:06.622Z,28.84
2023-09-27T13:54:12.215Z,28.84
2023-09-27T13:56:18.461Z,28.81
2023-09-27T13:58:23.597Z,28.76
2023-09-27T14:00:28.688Z,28.72
2023-09-27T14:02:33.828Z,28.68
2023-09-27T14:04:38.856Z,28.62
2023-09-27T14:06:43.942Z,28.58
2023-09-27T14:08:49.091Z,28.54
2023-09-27T14:10:54.327Z,28.48
2023-09-27T14:12:59.196Z,28.49
2023-09-27T14:15:04.648Z,28.45
2023-09-27T14:17:10.392Z,28.45
2023-09-27T14:19:15.327Z,28.45
2023-09-27T14:21:20.470Z,28.42
2023-09-27T14:23:25.642Z,28.38
2023-09-27T14:25:30.586Z,28.31
2023-09-27T14:27:35.623Z,28.27
2023-09-27T14:29:40.750Z,28.25
2023-09-27T14:31:45.825Z,28.22
2023-09-27T14:33:51.542Z,28.16
2023-09-27T14:35:56.697Z,28.11
2023-09-27T14:38:01.952Z,28.06
2023-09-27T14:40:08.303Z,28.02
2023-09-27T14:42:13.349Z,27.97
2023-09-27T14:44:18.424Z,27.93
2023-09-27T14:46:23.608Z,27.88
2023-09-27T14:48:28.789Z,27.82
2023-09-27T14:50:34.333Z,27.75
2023-09-27T14:52:39.593Z,27.69
2023-09-27T14:54:47.576Z,27.64
2023-09-27T14:56:52.379Z,27.59
2023-09-27T14:58:58.041Z,27.55
2023-09-27T15:01:04.630Z,27.51
2023-09-27T15:03:09.741Z,27.47
2023-09-27T15:05:15.016Z,27.44
2023-09-27T15:07:20.109Z,27.38
2023-09-27T15:09:24.898Z,27.35
2023-09-27T15:11:30.041Z,27.31
2023-09-27T15:13:34.794Z,27.28
2023-09-27T15:15:43.813Z,27.22
2023-09-27T15:17:48.634Z,27.16
2023-09-27T15:19:53.736Z,27.10
2023-09-27T15:22:01.369Z,27.05
2023-09-27T15:24:06.579Z,27.00
2023-09-27T15:26:13.598Z,26.95
2023-09-27T15:28:18.454Z,26.92
2023-09-27T15:30:23.508Z,26.89
2023-09-27T15:32:28.478Z,26.85
2023-09-27T15:34:36.260Z,26.80
2023-09-27T15:36:40.960Z,26.74
2023-09-27T15:38:45.808Z,26.68
2023-09-27T15:40:50.998Z,26.63
2023-09-27T15:42:57.193Z,26.58
2023-09-27T15:45:09.045Z,26.54
2023-09-27T15:47:14.279Z,26.51
2023-09-27T15:49:19.277Z,26.47
2023-09-27T15:51:24.287Z,26.43
2023-09-27T15:53:31.925Z,26.39
2023-09-27T15:55:36.690Z,26.35
2023-09-27T15:57:41.514Z,26.29
2023-09-27T15:59:46.312Z,26.26
2023-09-27T16:01:51.333Z,26.21
2023-09-27T16:03:56.190Z,26.15
2023-09-27T16:06:01.520Z,26.10
2023-09-27T16:08:06.991Z,26.05
2023-09-27T16:10:12.489Z,26.02
2023-09-27T16:12:17.269Z,25.97
2023-09-27T16:14:22.251Z,25.92
2023-09-27T16:16:27.507Z,25.87
2023-09-27T16:18:32.370Z,25.80
2023-09-27T16:20:37.224Z,25.74
2023-09-27T16:22:42.203Z,25.69
2023-09-27T16:24:47.364Z,25.62
2023-09-27T16:26:52.446Z,25.56
2023-09-27T16:28:57.383Z,25.50
2023-09-27T16:31:08.292Z,25.43
2023-09-27T16:33:15.132Z,25.39
2023-09-27T16:35:20.809Z,25.32
2023-09-27T16:37:26.132Z,25.24
2023-09-27T16:39:31.223Z,25.18
2023-09-27T16:41:37.969Z,25.12
2023-09-27T16:43:43.134Z,25.05
2023-09-27T16:45:48.272Z,24.99
2023-09-27T16:47:53.665Z,24.93
2023-09-27T16:49:59.017Z,24.86
2023-09-27T16:52:04.243Z,24.79
2023-09-27T16:54:10.189Z,24.73
2023-09-27T16:56:15.251Z,24.65
2023-09-27T16:58:20.971Z,24.59
2023-09-27T17:00:26.135Z,24.52
2023-09-27T17:02:32.772Z,24.45
2023-09-27T17:04:39.619Z,24.40
2023-09-27T17:06:45.886Z,24.35
2023-09-27T17:08:52.097Z,24.30
2023-09-27T17:10:58.601Z,24.24
2023-09-27T17:13:04.925Z,24.20
2023-09-27T17:15:12.552Z,24.15
2023-09-27T17:17:18.835Z,24.12
2023-09-27T17:19:27.761Z,24.08
2023-09-27T17:21:33.903Z,24.04
2023-09-27T17:23:40.753Z,23.99
2023-09-27T17:25:47.721Z,23.94
2023-09-27T17:27:53.412Z,23.91
2023-09-27T17:30:01.063Z,23.88
2023-09-27T17:32:12.809Z,23.83
2023-09-27T17:34:19.974Z,23.79
2023-09-27T17:36:26.370Z,23.75
2023-09-27T17:38:34.570Z,23.71
2023-09-27T17:40:40.928Z,23.68
2023-09-27T17:42:46.652Z,23.62
2023-09-27T17:44:53.405Z,23.59
2023-09-27T17:47:00.954Z,23.54
2023-09-27T17:49:08.472Z,23.50
2023-09-27T17:51:17.075Z,23.47
2023-09-27T17:53:23.090Z,23.44
2023-09-27T17:55:28.634Z,23.40
2023-09-27T17:57:36.520Z,23.37
2023-09-27T17:59:45.615Z,23.33
2023-09-27T18:01:53.932Z,23.29
2023-09-27T18:04:00.710Z,23.26
2023-09-27T18:06:14.075Z,23.23
2023-09-27T18:08:20.729Z,23.18
2023-09-27T18:10:26.015Z,23.15
2023-09-27T18:12:33.532Z,23.10
2023-09-27T18:14:39.107Z,23.04
2023-09-27T18:16:46.700Z,23.01
2023-09-27T18:18:52.261Z,22.97
2023-09-27T18:20:58.015Z,22.92
2023-09-27T18:23:04.746Z,22.89
2023-09-27T18:25:17.843Z,22.84
2023-09-27T18:27:25.198Z,22.80
2023-09-27T18:29:31.441Z,22.76
2023-09-27T18:31:42.724Z,22.71
2023-09-27T18:33:49.916Z,22.67
2023-09-27T18:35:57.577Z,22.62
2023-09-27T18:38:05.662Z,22.59
2023-09-27T18:40:14.130Z,22.56
2023-09-27T18:42:24.135Z,22.53
2023-09-27T18:44:32.742Z,22.50
2023-09-27T18:46:39.729Z,22.46
2023-09-27T18:48:47.377Z,22.41
2023-09-27T18:50:55.349Z,22.36
2023-09-27T18:53:02.668Z,22.32
2023-09-27T18:55:13.920Z,22.29
2023-09-27T18:57:22.563Z,22.25
2023-09-27T18:59:30.098Z,22.22
2023-09-27T19:01:36.171Z,22.19
2023-09-27T19:03:43.186Z,22.16
2023-09-27T19:05:52.263Z,22.13
2023-09-27T19:08:02.892Z,22.10
2023-09-27T19:10:12.122Z,22.07
2023-09-27T19:12:22.926Z,22.04
2023-09-27T19:14:34.088Z,22.00
2023-09-27T19:16:43.763Z,21.95
2023-09-27T19:18:54.522Z,21.90
2023-09-27T19:21:00.407Z,21.85
2023-09-27T19:23:07.479Z,21.80
2023-09-27T19:25:15.010Z,21.76
2023-09-27T19:27:21.975Z,21.72
2023-09-27T19:29:28.227Z,21.67
2023-09-27T19:31:35.273Z,21.61
2023-09-27T19:33:43.453Z,21.58
2023-09-27T19:35:49.839Z,21.54
2023-09-27T19:37:57.845Z,21.50
2023-09-27T19:40:08.111Z,21.46
2023-09-27T19:42:17.105Z,21.45
2023-09-27T19:44:24.869Z,21.42
2023-09-27T19:46:31.951Z,21.40
2023-09-27T19:48:47.425Z,21.39
2023-09-27T19:50:53.649Z,21.38
2023-09-27T19:53:02.797Z,21.37
2023-09-27T19:55:11.319Z,21.37
2023-09-27T19:57:19.099Z,21.35
2023-09-27T19:59:27.715Z,21.33
2023-09-27T20:01:34.782Z,21.29
2023-09-27T20:03:41.271Z,21.26
2023-09-27T20:05:47.028Z,21.23
2023-09-27T20:07:53.505Z,21.23
2023-09-27T20:09:59.405Z,21.21
2023-09-27T20:12:04.997Z,21.18
2023-09-27T20:14:10.374Z,21.17
2023-09-27T20:16:17.915Z,21.15
2023-09-27T20:18:24.091Z,21.12
2023-09-27T20:20:29.344Z,21.09
2023-09-27T20:22:35.778Z,21.06
2023-09-27T20:24:41.572Z,21.03
2023-09-27T20:26:48.724Z,20.98
2023-09-27T20:28:54.230Z,20.93
2023-09-27T20:30:59.748Z,20.89
2023-09-27T20:33:05.644Z,20.85
2023-09-27T20:35:11.356Z,20.80
2023-09-27T20:37:16.275Z,20.74
2023-09-27T20:39:21.645Z,20.71
2023-09-27T20:41:26.411Z,20.68
2023-09-27T20:43:31.452Z,20.62
2023-09-27T20:45:37.785Z,20.54
2023-09-27T20:47:42.690Z,20.47
2023-09-27T20:49:47.826Z,20.39
2023-09-27T20:51:52.721Z,20.32
2023-09-27T20:53:57.724Z,20.26
2023-09-27T20:56:05.359Z,20.20
2023-09-27T20:58:10.266Z,20.16
2023-09-27T21:00:16.771Z,20.12
2023-09-27T21:02:21.869Z,20.09
2023-09-27T21:04:29.507Z,20.07
2023-09-27T21:06:34.397Z,20.05
2023-09-27T21:08:41.073Z,20.04
2023-09-27T21:10:47.259Z,20.00
2023-09-27T21:12:52.168Z,19.98
2023-09-27T21:14:59.749Z,19.95
2023-09-27T21:17:04.564Z,19.92
2023-09-27T21:19:09.356Z,19.89
2023-09-27T21:21:14.524Z,19.88
2023-09-27T21:23:20.983Z,19.85
2023-09-27T21:25:26.050Z,19.82
2023-09-27T21:27:30.845Z,19.81
2023-09-27T21:29:35.672Z,19.80
2023-09-27T21:31:42.957Z,19.81
2023-09-27T21:33:47.906Z,19.82
2023-09-27T21:35:56.719Z,19.83
2023-09-27T21:38:01.666Z,19.83
2023-09-27T21:40:08.644Z,19.85
2023-09-27T21:42:13.544Z,19.85
2023-09-27T21:44:22.107Z,19.84
2023-09-27T21:46:27.095Z,19.83
2023-09-27T21:48:32.757Z,19.81
2023-09-27T21:50:38.702Z,19.79
2023-09-27T21:52:43.481Z,19.79
2023-09-27T21:54:48.478Z,19.77
2023-09-27T21:56:53.271Z,19.75
2023-09-27T21:58:58.219Z,19.77
2023-09-27T22:01:09.465Z,19.78
2023-09-27T22:03:14.409Z,19.79
2023-09-27T22:05:19.499Z,19.78
2023-09-27T22:07:24.346Z,19.78
2023-09-27T22:09:29.289Z,19.77
2023-09-27T22:11:34.058Z,19.77
2023-09-27T22:13:39.624Z,19.79
2023-09-27T22:15:45.476Z,19.78
2023-09-27T22:17:50.339Z,19.78
2023-09-27T22:19:55.209Z,19.78
2023-09-27T22:22:00.367Z,19.78
2023-09-27T22:24:06.078Z,19.78
2023-09-27T22:26:16.257Z,19.78
2023-09-27T22:28:21.464Z,19.78
2023-09-27T22:30:26.335Z,19.76
2023-09-27T22:32:31.143Z,19.75
2023-09-27T22:34:35.957Z,19.75
2023-09-27T22:36:41.640Z,19.74
2023-09-27T22:38:46.399Z,19.74
2023-09-27T22:40:51.230Z,19.74
2023-09-27T22:42:56.088Z,19.75
2023-09-27T22:45:00.773Z,19.75
2023-09-27T22:47:06.279Z,19.75
2023-09-27T22:49:10.987Z,19.73
2023-09-27T22:51:15.864Z,19.71
2023-09-27T22:53:21.621Z,19.70
2023-09-27T22:55:27.365Z,19.70
2023-09-27T22:57:32.782Z,19.69
2023-09-27T22:59:37.692Z,19.69
2023-09-27T23:01:44.983Z,19.70
2023-09-27T23:03:51.241Z,19.69
2023-09-27T23:05:56.303Z,19.68
2023-09-27T23:08:02.244Z,19.66
2023-09-27T23:10:08.598Z,19.66
2023-09-27T23:12:13.656Z,19.65
2023-09-27T23:14:19.644Z,19.65
2023-09-27T23:16:24.782Z,19.65
2023-09-27T23:18:30.201Z,19.66
2023-09-27T23:20:35.617Z,19.67
2023-09-27T23:22:40.336Z,19.65
2023-09-27T23:24:51.842Z,19.65
2023-09-27T23:26:56.544Z,19.63
2023-09-27T23:29:01.349Z,19.62
2023-09-27T23:31:08.584Z,19.61
2023-09-27T23:33:13.319Z,19.61
2023-09-27T23:35:18.336Z,19.61
2023-09-27T23:37:23.227Z,19.59
2023-09-27T23:39:31.164Z,19.57
2023-09-27T23:41:35.786Z,19.52
2023-09-27T23:43:40.459Z,19.47
2023-09-27T23:45:45.235Z,19.38
2023-09-27T23:47:53.169Z,19.34
2023-09-27T23:49:57.963Z,19.29
2023-09-27T23:52:03.079Z,19.24
2023-09-27T23:54:08.125Z,19.21
2023-09-27T23:56:14.486Z,19.16
2023-09-27T23:58:19.273Z,19.13
